Stations météo

réclame
Mon MeteoGroup
Coventry/Coundon, Grande-Bretagne (99070): Température de l'air & dewpoint: 12.01.2020 04:00:00 - 18.01.2020 04:00:00 (GMT)Coventry/Coundon, Grande-Bretagne (99070): Température de l'air -20cm & Température de l'air -100cm: 12.01.2020 04:00:00 - 18.01.2020 04:00:00 (GMT)Coventry/Coundon, Grande-Bretagne (99070): Vitesse du vent & gusts: 12.01.2020 04:00:00 - 18.01.2020 04:00:00 (GMT)Coventry/Coundon, Grande-Bretagne (99070): Direction du vent: 12.01.2020 04:00:00 - 18.01.2020 04:00:00 (GMT)Coventry/Coundon, Grande-Bretagne (99070): Ensoleillement: 12.01.2020 04:00:00 - 18.01.2020 04:00:00 (GMT)Coventry/Coundon, Grande-Bretagne (99070): Quantités de précipitations: 12.01.2020 04:00:00 - 18.01.2020 04:00:00 (GMT)
Date & Time tt [°C] td [°C] tt -20cm [°C] tt -100cm [°C] ff [km/h] ff [knt] fx [km/h] fx [knt] dd sd [min] rr [mm]
18.01.2020 04:00:00 0,7 0,3 - - 5 3 - - W 0 0,0
18.01.2020 03:00:00 1,1 0,5 - - 5 3 - - W 0 0,0
18.01.2020 02:00:00 1,0 0,4 - - 5 3 - - W 0 0,0
18.01.2020 01:00:00 1,0 0,4 - - 2 1 - - SW 0 0,0
18.01.2020 00:00:00 1,5 0,8 - - 9 5 - - W - 0,0
17.01.2020 23:00:00 2,0 1,1 - - 5 3 - - WSW 0 0,0
17.01.2020 22:00:00 2,3 1,6 - - 8 4 - - WSW 0 0,0
17.01.2020 21:00:00 2,7 1,8 - - 9 5 - - WSW 0 0,0
17.01.2020 20:00:00 3,1 1,9 - - 11 6 - - WSW 0 0,0
17.01.2020 19:00:00 3,5 2,3 - - 8 4 - - SW 0 0,0
17.01.2020 18:00:00 4,1 2,5 - - 11 6 - - SW 0 0,0
17.01.2020 17:00:00 4,5 2,1 - - 9 5 - - WSW 0 0,0
17.01.2020 16:00:00 5,0 2,3 - - 13 7 - - WSW 18 0,0
17.01.2020 15:00:00 5,5 2,6 - - 13 7 - - WSW 18 0,0
17.01.2020 14:00:00 4,7 2,0 - - 15 8 - - WSW 0 0,0
17.01.2020 13:00:00 3,9 2,4 - - 16 9 - - WNW 0 0,0
17.01.2020 12:00:00 3,9 2,9 - - 16 9 48 26 WNW 0 1,6
17.01.2020 11:00:00 7,3 5,2 - - 11 6 - - SW 0 0,0
17.01.2020 10:00:00 7,0 5,4 - - 11 6 - - SSW 6 0,0
17.01.2020 09:00:00 6,5 5,7 6,9 8,0 9 5 - - SSW 0 0,0
17.01.2020 08:00:00 6,8 5,6 - - 9 5 - - S 0 0,0
17.01.2020 07:00:00 7,7 6,0 - - 9 5 - - S 0 0,0
17.01.2020 06:00:00 8,1 7,2 - - 11 6 - - S 0 0,0
17.01.2020 05:00:00 7,6 6,9 - - 8 4 - - S 0 0,0
17.01.2020 04:00:00 7,3 6,4 - - 8 4 - - SSE 0 0,0
17.01.2020 03:00:00 7,7 6,9 - - 8 4 - - S 0 0,0
17.01.2020 02:00:00 7,8 6,7 - - 8 4 - - S 0 0,0
17.01.2020 01:00:00 8,2 6,5 - - 5 3 - - S 0 0,0
17.01.2020 00:00:00 8,7 6,5 - - 9 5 - - SSW - 0,0
16.01.2020 23:00:00 9,5 7,0 - - 11 6 - - SW 0 0,0
16.01.2020 22:00:00 10,2 7,8 - - 15 8 - - SW 0 0,0
16.01.2020 21:00:00 10,3 9,1 - - 13 7 - - SSW 0 0,0
16.01.2020 20:00:00 10,4 9,6 - - 15 8 - - S 0 0,0
16.01.2020 19:00:00 10,3 9,8 - - 16 9 - - S 0 1,4
16.01.2020 18:00:00 10,1 9,3 - - 24 13 48 26 S 0 0,4
16.01.2020 17:00:00 10,1 8,5 - - 24 13 46 25 S 0 0,2
16.01.2020 16:00:00 9,1 8,2 - - 21 11 46 25 S 0 2,8
16.01.2020 15:00:00 9,2 7,8 - - 24 13 - - S 0 1,4
16.01.2020 14:00:00 9,3 7,5 - - 22 12 48 26 S 0 0,6
16.01.2020 13:00:00 9,2 7,1 - - 24 13 48 26 S 0 0,2
16.01.2020 12:00:00 9,1 6,2 - - 22 12 - - SSE 0 0,0
16.01.2020 11:00:00 7,6 5,7 - - 18 10 - - SSE 0 0,0
16.01.2020 10:00:00 6,7 5,2 - - 18 10 - - SSE 0 0,0
16.01.2020 09:00:00 6,2 4,8 6,7 8,2 16 9 - - SSE 0 0,0
16.01.2020 08:00:00 6,0 5,0 - - 16 9 - - SSE 0 0,0
16.01.2020 07:00:00 6,4 5,2 - - 13 7 - - S 0 0,0
16.01.2020 06:00:00 6,0 5,1 - - 11 6 - - S 0 0,0
16.01.2020 05:00:00 5,5 4,7 - - 11 6 - - S 0 0,0
16.01.2020 04:00:00 5,1 4,3 - - 9 5 - - S 0 0,0
16.01.2020 03:00:00 4,4 3,4 - - 8 4 - - SSE 0 0,0
16.01.2020 02:00:00 4,7 3,5 - - 9 5 - - S 0 0,0
16.01.2020 01:00:00 4,4 3,0 - - 11 6 - - SSW 0 0,0
16.01.2020 00:00:00 4,5 3,0 - - 9 5 - - S - 0,0
15.01.2020 23:00:00 4,3 2,4 - - 8 4 - - SSW 0 0,0
15.01.2020 22:00:00 5,6 3,0 - - 11 6 - - SSW 0 0,0
15.01.2020 21:00:00 6,0 3,5 - - 13 7 - - SSW 0 0,0
15.01.2020 20:00:00 5,9 3,8 - - 15 8 - - SSW 0 0,0
15.01.2020 19:00:00 5,9 3,6 - - 13 7 - - SW 0 0,0
15.01.2020 18:00:00 5,6 3,2 - - 13 7 - - SSW 0 0,0
15.01.2020 17:00:00 6,1 3,1 - - 11 6 - - SW 0 0,0
15.01.2020 16:00:00 6,6 3,8 - - 11 6 - - SSW 24 0,0
15.01.2020 15:00:00 7,8 3,5 - - 15 8 - - SW 36 0,0
15.01.2020 14:00:00 7,5 3,7 - - 11 6 - - WSW 30 0,0
15.01.2020 13:00:00 8,4 3,7 - - 16 9 - - WSW 54 0,0
15.01.2020 12:00:00 8,2 5,3 - - 15 8 - - SW 36 0,0
15.01.2020 11:00:00 6,8 4,8 - - 13 7 - - SSW 0 0,0
15.01.2020 10:00:00 6,4 4,9 - - 11 6 - - SSW 0 0,0
15.01.2020 09:00:00 6,1 4,8 7,2 8,2 11 6 - - SSW 0 0,0
15.01.2020 08:00:00 6,0 4,8 - - 13 7 - - SSW 0 0,0
15.01.2020 07:00:00 5,8 4,9 - - 9 5 - - SSW 0 0,0
15.01.2020 06:00:00 5,7 4,9 - - 9 5 - - SSW 0 0,0
15.01.2020 05:00:00 6,0 4,5 - - 11 6 - - SW 0 0,0
15.01.2020 04:00:00 6,1 4,7 - - 11 6 - - SSW 0 0,0
15.01.2020 03:00:00 6,1 4,0 - - 13 7 - - WSW 0 0,2
15.01.2020 02:00:00 6,4 5,0 - - 13 7 - - W 0 0,6
15.01.2020 01:00:00 6,7 5,8 - - 13 7 - - W 0 0,8
15.01.2020 00:00:00 7,1 5,8 - - 9 5 - - W - 0,6
14.01.2020 23:00:00 8,1 6,2 - - 13 7 - - W 0 0,2
14.01.2020 22:00:00 9,4 8,1 - - 11 6 - - SW 0 0,4
14.01.2020 21:00:00 10,1 8,7 - - 15 8 - - WSW 0 0,2
14.01.2020 20:00:00 10,7 9,6 - - 18 10 48 26 SW 0 0,4
14.01.2020 19:00:00 11,0 9,7 - - 22 12 52 28 SW 0 1,8
14.01.2020 18:00:00 11,8 10,4 - - 26 14 50 27 SW 0 0,8
14.01.2020 17:00:00 12,6 10,7 - - 26 14 59 32 SW 0 0,2
14.01.2020 16:00:00 12,5 11,7 - - 26 14 57 31 SSW 0 1,2
14.01.2020 15:00:00 13,5 11,1 - - 31 17 63 34 SSW 0 0,0
14.01.2020 14:00:00 10,7 9,7 - - 22 12 67 36 S 0 0,0
14.01.2020 13:00:00 8,7 7,9 - - 26 14 52 28 S 0 0,4
14.01.2020 12:00:00 7,8 6,5 - - 16 9 - - S 0 0,6
14.01.2020 11:00:00 7,9 5,7 - - 13 7 - - S 0 0,0
14.01.2020 10:00:00 6,7 4,9 - - 15 8 - - S 0 0,0
14.01.2020 09:00:00 5,4 3,7 6,7 8,2 13 7 - - S 0 0,0
14.01.2020 08:00:00 4,7 3,3 - - 9 5 - - S 0 0,0
14.01.2020 07:00:00 5,3 3,7 - - 9 5 - - S 0 0,0
14.01.2020 06:00:00 5,5 4,4 - - 11 6 - - SSW 0 0,2
14.01.2020 05:00:00 5,7 4,5 - - 13 7 - - SW 0 1,0
14.01.2020 04:00:00 5,8 4,1 - - 11 6 - - SSW 0 0,0
14.01.2020 03:00:00 6,1 4,0 - - 13 7 - - SSW 0 0,0
14.01.2020 02:00:00 6,5 4,4 - - 15 8 - - SW 0 0,0
14.01.2020 01:00:00 6,4 4,7 - - 16 9 - - SSW 0 0,2
14.01.2020 00:00:00 6,3 4,2 - - 15 8 - - SSW - 0,0
13.01.2020 23:00:00 6,7 4,3 - - 16 9 - - SSW 0 0,0
13.01.2020 22:00:00 6,4 4,8 - - 13 7 - - SSW 0 0,0
13.01.2020 21:00:00 6,3 4,9 - - 15 8 - - SSW 0 0,0
13.01.2020 20:00:00 6,3 4,8 - - 15 8 - - SW 0 0,4
13.01.2020 19:00:00 5,7 4,5 - - 26 14 59 32 WSW 0 5,4
13.01.2020 18:00:00 8,8 7,5 - - 24 13 59 32 S 0 0,8
13.01.2020 17:00:00 8,3 6,7 - - 28 15 55 30 S 0 0,4
13.01.2020 16:00:00 8,2 6,2 - - 22 12 50 27 S 0 0,0
13.01.2020 15:00:00 8,0 6,0 - - 22 12 48 26 S 0 0,2
13.01.2020 14:00:00 8,1 5,8 - - 28 15 54 29 S 0 0,0
13.01.2020 13:00:00 8,7 5,0 - - 21 11 52 28 S 6 0,0
13.01.2020 12:00:00 7,9 5,7 - - 18 10 - - S 0 0,0
13.01.2020 11:00:00 7,3 6,0 - - 18 10 - - S 0 0,0
13.01.2020 10:00:00 6,1 5,7 - - 15 8 - - S 0 0,0
13.01.2020 09:00:00 4,8 4,8 6,9 8,2 15 8 - - S 0 0,0
13.01.2020 08:00:00 3,6 3,5 - - 9 5 - - S 0 0,0
13.01.2020 07:00:00 3,6 3,3 - - 8 4 - - S 0 0,0
13.01.2020 06:00:00 3,9 3,5 - - 9 5 - - S 0 0,0
13.01.2020 05:00:00 3,9 3,5 - - 9 5 - - S 0 0,0
13.01.2020 04:00:00 3,6 3,1 - - 9 5 - - S 0 0,0
13.01.2020 03:00:00 3,7 2,9 - - 5 3 - - S 0 0,0
13.01.2020 02:00:00 4,9 4,1 - - 8 4 - - S 0 0,0
13.01.2020 01:00:00 4,7 3,9 - - 8 4 - - SSW 0 0,0
13.01.2020 00:00:00 5,2 4,2 - - 8 4 - - SSW - 0,0
12.01.2020 23:00:00 5,1 4,5 - - 11 6 - - SSW 0 0,0
12.01.2020 22:00:00 4,8 4,1 - - 8 4 - - SSW 0 0,0
12.01.2020 21:00:00 5,1 4,1 - - 11 6 - - SSW 0 0,0
12.01.2020 20:00:00 5,4 3,7 - - 11 6 - - SSW 0 0,0
12.01.2020 19:00:00 5,6 3,7 - - 9 5 - - SSW 0 0,0
12.01.2020 18:00:00 5,3 3,4 - - 5 3 - - SSW 0 0,0
12.01.2020 17:00:00 6,3 3,7 - - 5 3 - - SW 0 0,0
12.01.2020 16:00:00 7,3 3,8 - - 5 3 - - SW 18 0,0
12.01.2020 15:00:00 8,7 4,0 - - 13 7 - - WSW 54 0,0
12.01.2020 14:00:00 9,0 3,4 - - 16 9 - - W 54 0,0
12.01.2020 13:00:00 9,3 4,3 - - 21 11 - - W 24 0,0
12.01.2020 12:00:00 8,2 5,8 - - 21 11 - - W 6 0,0
12.01.2020 11:00:00 8,3 6,6 - - 18 10 - - W 30 1,2
12.01.2020 10:00:00 8,2 7,2 - - 15 8 - - WSW 12 0,4
12.01.2020 09:00:00 8,5 7,1 7,4 8,2 11 6 - - WSW 6 0,0
12.01.2020 08:00:00 9,0 8,1 - - 11 6 - - SW 0 0,0
12.01.2020 07:00:00 9,7 9,0 - - 15 8 - - SW 0 0,0
12.01.2020 06:00:00 10,0 9,3 - - 13 7 - - WSW 0 1,0
12.01.2020 05:00:00 10,1 9,6 - - 16 9 - - SW 0 0,4
12.01.2020 04:00:00 9,9 9,5 - - 16 9 - - SSW 0 1,2

tt = Température de l'air
td = dewpoint
tt -20cm = Température de l'air -20cm
tt -100cm = Température de l'air -100cm
ff = Vitesse du vent
fx = gusts
dd = Direction du vent
sd = Ensoleillement
rr = Quantités de précipitations

stations d'obs. à proximité